Time;durP1;ratioP1;P1;durP2;ratioP2;P2;SDS_P1;SDS_P2;PMS_P1;PMS_P2;Temp;Humidity;BMP_temperature;BMP_pressure;BME280_temperature;BME280_humidity;BME280_pressure;Samples;Min_cycle;Max_cycle;Signal;HPM_P1;HPM_P2
2022/06/02 00:00:57;;;;;;;4.07;3.78;;;10.10;99.90;;;;;;4324198;28;9999988;-75
2022/06/02 00:03:32;;;;;;;3.83;3.53;;;10.00;99.90;;;;;;5017411;28;20013;-75
2022/06/02 00:06:15;;;;;;;4.70;4.30;;;10.00;99.90;;;;;;5014832;28;20053;-76
2022/06/02 00:09:10;;;;;;;5.88;4.40;;;9.90;99.90;;;;;;5009092;28;20510;-75
2022/06/02 00:12:04;;;;;;;4.25;3.85;;;9.80;99.90;;;;;;5009317;28;20379;-76
2022/06/02 00:14:35;;;;;;;;;;;9.80;99.90;;;;;;5008037;28;20022;-75
2022/06/02 00:17:29;;;;;;;5.65;4.10;;;9.70;99.90;;;;;;5011532;28;20064;-76
2022/06/02 00:20:05;;;;;;;5.55;4.40;;;9.60;99.90;;;;;;4999378;28;20048;-76
2022/06/02 00:22:52;;;;;;;5.20;4.80;;;9.60;99.90;;;;;;5014255;28;20038;-75
2022/06/02 00:25:26;;;;;;;7.05;6.35;;;9.60;99.90;;;;;;5009459;28;20068;-75
2022/06/02 00:28:11;;;;;;;6.53;5.85;;;9.60;99.90;;;;;;5016673;28;20029;-75
2022/06/02 00:30:57;;;;;;;7.00;5.88;;;9.50;99.90;;;;;;5014653;28;20026;-76
2022/06/02 00:33:45;;;;;;;7.00;6.35;;;9.50;99.90;;;;;;5010116;28;20125;-75
2022/06/02 00:36:59;;;;;;;8.70;6.50;;;9.40;99.90;;;;;;5017197;28;20041;-75
2022/06/02 00:39:24;;;;;;;6.60;6.00;;;9.40;99.90;;;;;;5012624;28;20049;-75
2022/06/02 00:41:53;;;;;;;6.80;5.85;;;9.50;99.90;;;;;;5017756;28;20033;-75
2022/06/02 00:44:39;;;;;;;6.22;5.63;;;9.50;99.90;;;;;;5020982;28;20025;-75
2022/06/02 00:47:30;;;;;;;5.70;5.20;;;9.50;99.90;;;;;;5015169;28;20083;-75
2022/06/02 00:50:07;;;;;;;5.43;4.80;;;9.50;99.90;;;;;;5012994;28;20033;-75
2022/06/02 00:52:54;;;;;;;6.75;5.20;;;9.50;99.90;;;;;;5020687;28;20712;-75
2022/06/02 00:58:36;;;;;;;6.07;5.50;;;9.40;99.90;;;;;;5014154;28;20347;-75
2022/06/02 01:01:04;;;;;;;6.97;5.95;;;9.40;99.90;;;;;;5023311;28;20026;-75
2022/06/02 01:03:43;;;;;;;6.20;5.60;;;9.20;99.90;;;;;;5018942;28;20014;-75
2022/06/02 01:06:19;;;;;;;5.88;5.38;;;9.20;99.90;;;;;;5012126;28;20125;-75
2022/06/02 01:09:12;;;;;;;5.65;5.15;;;9.20;99.90;;;;;;5017142;28;20504;-75
2022/06/02 01:11:52;;;;;;;6.63;5.00;;;9.10;99.90;;;;;;5020190;28;20108;-75
2022/06/02 01:14:36;;;;;;;5.95;5.40;;;9.00;99.90;;;;;;5022417;28;20043;-75
2022/06/02 01:17:42;;;;;;;5.18;4.78;;;9.00;99.90;;;;;;5021963;28;20529;-75
2022/06/02 01:20:26;;;;;;;5.45;4.95;;;9.00;99.90;;;;;;5022616;28;20048;-75
2022/06/02 01:23:14;;;;;;;5.40;4.90;;;8.90;99.90;;;;;;5017945;28;20112;-75
2022/06/02 01:26:17;;;;;;;5.50;5.00;;;8.90;99.90;;;;;;5015414;28;20034;-75
2022/06/02 01:29:06;;;;;;;5.43;4.93;;;8.90;99.90;;;;;;5013229;28;20013;-75
2022/06/02 01:31:56;;;;;;;7.05;6.22;;;8.90;99.90;;;;;;5015280;28;20049;-75
2022/06/02 01:34:36;;;;;;;5.50;4.82;;;8.80;99.90;;;;;;5012998;28;20388;-75
2022/06/02 01:37:17;;;;;;;5.72;5.20;;;8.80;99.90;;;;;;5016279;28;20276;-75
2022/06/02 01:40:00;;;;;;;5.80;5.30;;;8.70;99.90;;;;;;5018144;28;20922;-75
2022/06/02 01:42:37;;;;;;;5.70;4.77;;;8.70;99.90;;;;;;5025043;28;20372;-75
2022/06/02 01:45:12;;;;;;;5.00;4.60;;;8.70;99.90;;;;;;5024989;28;20521;-75
2022/06/02 01:47:43;;;;;;;4.72;4.32;;;8.70;99.90;;;;;;5024809;28;20033;-75
2022/06/02 01:50:54;;;;;;;5.70;5.20;;;8.60;99.90;;;;;;5021186;28;20029;-75
2022/06/02 01:53:45;;;;;;;4.88;4.45;;;8.60;99.90;;;;;;5016275;28;20072;-75
2022/06/02 01:56:18;;;;;;;7.03;4.78;;;8.60;99.90;;;;;;5018572;28;20128;-75
2022/06/02 01:59:12;;;;;;;4.93;4.40;;;8.60;99.90;;;;;;5018769;28;20033;-75
2022/06/02 02:01:44;;;;;;;5.82;5.32;;;8.50;99.90;;;;;;5023509;28;20067;-74
2022/06/02 02:04:20;;;;;;;4.95;4.55;;;8.60;99.90;;;;;;5021951;28;20072;-74
2022/06/02 02:06:59;;;;;;;6.25;4.30;;;8.50;99.90;;;;;;5022537;28;20029;-75
2022/06/02 02:09:43;;;;;;;5.68;4.00;;;8.50;99.90;;;;;;5009855;28;20029;-75
2022/06/02 02:12:31;;;;;;;5.90;4.90;;;8.50;99.90;;;;;;5018451;28;20044;-75
2022/06/02 02:15:29;;;;;;;5.30;4.80;;;8.50;99.90;;;;;;5016394;28;20489;-75
2022/06/02 02:18:19;;;;;;;7.32;5.18;;;8.50;99.90;;;;;;5025652;28;20461;-75
2022/06/02 02:21:05;;;;;;;5.57;4.97;;;8.50;99.90;;;;;;5023890;28;20036;-74
2022/06/02 02:23:49;;;;;;;4.80;4.38;;;8.70;99.90;;;;;;5020119;28;20026;-75
2022/06/02 02:26:21;;;;;;;4.43;4.03;;;8.70;99.90;;;;;;5022027;28;20596;-75
2022/06/02 02:29:32;;;;;;;5.15;4.65;;;8.60;99.90;;;;;;5021981;28;20108;-74
2022/06/02 02:32:22;;;;;;;5.57;4.57;;;8.60;99.90;;;;;;4933766;29;20060;-75
2022/06/02 02:35:11;;;;;;;5.57;5.07;;;8.50;99.90;;;;;;4962062;28;20066;-75
2022/06/02 02:37:46;;;;;;;6.70;5.10;;;8.40;99.90;;;;;;4998558;28;20049;-74
2022/06/02 02:40:50;;;;;;;5.80;5.07;;;8.40;99.90;;;;;;4988164;28;20513;-74
2022/06/02 02:43:46;;;;;;;5.70;5.10;;;8.30;99.90;;;;;;4987609;28;20107;-74
2022/06/02 02:46:19;;;;;;;6.65;5.05;;;8.20;99.90;;;;;;4996827;28;20386;-75
2022/06/02 02:49:21;;;;;;;4.80;4.38;;;8.10;99.90;;;;;;4991621;28;20021;-75
2022/06/02 02:52:18;;;;;;;5.85;5.25;;;8.00;99.90;;;;;;4959295;28;20104;-74
2022/06/02 02:54:57;;;;;;;5.32;4.82;;;8.00;99.90;;;;;;4994908;28;20030;-74
2022/06/02 02:57:37;;;;;;;4.53;4.13;;;7.90;99.90;;;;;;4993710;28;20026;-75
2022/06/02 03:00:08;;;;;;;5.00;4.50;;;7.90;99.90;;;;;;4999154;28;20026;-74
2022/06/02 03:02:37;;;;;;;5.35;4.80;;;7.80;99.90;;;;;;4994258;28;20022;-75
2022/06/02 03:05:14;;;;;;;5.63;5.13;;;7.80;99.90;;;;;;4991835;28;20033;-75
2022/06/02 03:07:40;;;;;;;6.20;5.60;;;7.80;99.90;;;;;;5005150;28;20041;-75
2022/06/02 03:10:11;;;;;;;5.90;5.40;;;7.80;99.90;;;;;;5000046;28;20536;-75
2022/06/02 03:12:56;;;;;;;5.72;5.20;;;7.70;99.90;;;;;;5001461;28;20038;-75
2022/06/02 03:15:33;;;;;;;6.03;5.50;;;7.70;99.90;;;;;;5002637;28;20434;-75
2022/06/02 03:18:09;;;;;;;5.65;5.15;;;7.80;99.90;;;;;;5002180;28;20026;-74
2022/06/02 03:20:40;;;;;;;6.47;5.88;;;7.80;99.90;;;;;;4988171;28;20295;-74
2022/06/02 03:23:12;;;;;;;6.65;5.43;;;7.80;99.90;;;;;;5001185;28;20030;-74
2022/06/02 03:25:42;;;;;;;7.00;6.00;;;7.80;99.90;;;;;;5002196;28;20086;-74
2022/06/02 03:28:14;;;;;;;6.70;6.10;;;7.80;99.90;;;;;;5001044;28;20043;-74
2022/06/02 03:30:56;;;;;;;6.45;5.85;;;7.70;99.90;;;;;;4989883;28;20036;-74
2022/06/02 03:33:24;;;;;;;9.68;6.40;;;7.60;99.90;;;;;;5006659;28;20045;-74
2022/06/02 03:36:33;;;;;;;8.32;6.13;;;7.60;99.90;;;;;;5014451;28;20025;-74
2022/06/02 03:39:25;;;;;;;6.53;5.93;;;7.60;99.90;;;;;;4958133;28;20035;-75
2022/06/02 03:42:06;;;;;;;6.50;5.90;;;7.60;99.90;;;;;;5016829;28;20060;-74
2022/06/02 03:44:58;;;;;;;6.32;5.72;;;7.60;99.90;;;;;;5021972;28;20306;-74
2022/06/02 03:47:50;;;;;;;7.03;5.43;;;7.70;99.90;;;;;;5018391;28;20025;-74
2022/06/02 03:50:23;;;;;;;6.45;5.80;;;7.70;99.90;;;;;;5014645;28;20034;-74
2022/06/02 03:52:56;;;;;;;;;;;7.80;99.90;;;;;;5022636;28;20144;-74
2022/06/02 03:55:35;;;;;;;6.93;6.28;;;7.80;99.90;;;;;;5015934;28;19932;-74
2022/06/02 03:58:42;;;;;;;7.32;5.75;;;7.90;99.90;;;;;;5022710;28;20033;-74
2022/06/02 04:01:12;;;;;;;6.30;5.75;;;8.00;99.90;;;;;;4987251;28;20068;-74
2022/06/02 04:03:41;;;;;;;6.43;5.80;;;8.10;99.90;;;;;;5010687;28;20069;-75
2022/06/02 04:06:13;;;;;;;5.85;5.32;;;8.10;99.90;;;;;;5015499;28;20026;-75
2022/06/02 04:09:06;;;;;;;6.15;5.55;;;8.30;99.90;;;;;;5018538;28;20060;-74
2022/06/02 04:15:39;;;;;;;7.97;5.00;;;9.30;99.90;;;;;;5018972;28;20258;-75
2022/06/02 04:18:20;;;;;;;5.85;4.95;;;11.90;99.90;;;;;;5012517;28;20037;-74
2022/06/02 04:20:51;;;;;;;5.20;4.70;;;13.60;99.90;;;;;;5015480;28;20524;-75
2022/06/02 04:23:39;;;;;;;4.70;4.25;;;14.90;99.90;;;;;;5018601;28;20025;-75
2022/06/02 04:26:42;;;;;;;4.50;4.10;;;15.60;99.90;;;;;;5022253;28;20108;-75
2022/06/02 04:29:29;;;;;;;4.40;3.97;;;15.30;99.90;;;;;;5012493;28;20108;-75
2022/06/02 04:32:35;;;;;;;4.65;4.25;;;14.40;99.90;;;;;;5015015;28;20034;-75
2022/06/02 04:35:47;;;;;;;5.35;4.53;;;13.50;99.90;;;;;;5009457;28;20053;-74
2022/06/02 04:38:27;;;;;;;5.35;4.32;;;12.80;99.90;;;;;;4960180;28;20074;-75
2022/06/02 04:41:11;;;;;;;4.75;4.35;;;12.00;99.90;;;;;;5005212;28;20047;-75
2022/06/02 04:43:53;;;;;;;5.10;4.60;;;11.70;99.90;;;;;;5018819;28;20026;-75
2022/06/02 04:46:56;;;;;;;4.60;4.18;;;11.30;99.90;;;;;;5013946;28;20116;-74
2022/06/02 04:49:43;;;;;;;5.70;4.57;;;11.10;99.90;;;;;;5014975;28;20030;-74
2022/06/02 04:52:37;;;;;;;4.93;4.43;;;11.10;99.90;;;;;;5013117;28;20037;-75
2022/06/02 04:55:25;;;;;;;;;;;11.20;99.90;;;;;;5015285;28;20033;-74
2022/06/02 04:58:09;;;;;;;4.88;4.40;;;11.20;99.90;;;;;;5017689;28;19952;-75
2022/06/02 05:00:51;;;;;;;5.45;4.43;;;11.20;99.90;;;;;;5016134;28;20057;-75
2022/06/02 05:03:25;;;;;;;4.32;3.92;;;11.20;99.90;;;;;;5019852;28;20044;-75
2022/06/02 05:06:33;;;;;;;4.82;4.22;;;11.20;99.90;;;;;;5022862;28;20029;-75
2022/06/02 05:09:16;;;;;;;6.53;3.60;;;11.30;99.90;;;;;;5021188;28;20033;-74
2022/06/02 05:11:51;;;;;;;4.77;3.97;;;11.30;99.90;;;;;;5022944;28;20037;-75
2022/06/02 05:14:31;;;;;;;4.68;4.28;;;11.20;99.90;;;;;;5021904;28;20009;-75
2022/06/02 05:17:11;;;;;;;5.05;4.15;;;11.20;99.90;;;;;;5014938;28;20330;-75
2022/06/02 05:20:07;;;;;;;4.43;4.03;;;11.30;99.90;;;;;;5014806;28;20088;-75
2022/06/02 05:22:58;;;;;;;4.53;4.03;;;11.40;99.90;;;;;;5020318;28;20493;-75
2022/06/02 05:25:51;;;;;;;4.93;4.03;;;11.60;99.90;;;;;;5017438;28;20030;-75
2022/06/02 05:28:54;;;;;;;4.47;3.90;;;11.70;99.90;;;;;;5010652;28;20029;-75
2022/06/02 05:31:58;;;;;;;4.55;4.15;;;11.80;99.90;;;;;;5019523;28;20061;-75
2022/06/02 05:34:53;;;;;;;3.90;3.55;;;11.90;99.90;;;;;;5025517;28;20532;-75
2022/06/02 05:38:00;;;;;;;4.18;3.83;;;12.10;99.90;;;;;;5016921;28;20037;-75
2022/06/02 05:40:43;;;;;;;4.60;4.20;;;12.20;99.90;;;;;;4666827;28;10002889;-75
2022/06/02 05:43:30;;;;;;;4.55;4.15;;;12.20;99.90;;;;;;5010392;28;20364;-75
2022/06/02 05:46:07;;;;;;;6.22;4.10;;;12.30;99.90;;;;;;5015654;28;20729;-74
2022/06/02 05:49:07;;;;;;;4.47;4.05;;;12.50;99.90;;;;;;5013022;28;20174;-75
2022/06/02 05:52:26;;;;;;;5.18;4.10;;;12.60;99.90;;;;;;5014244;28;20140;-74
2022/06/02 05:55:10;;;;;;;4.80;4.32;;;12.70;99.90;;;;;;4994974;28;20077;-75
2022/06/02 05:58:00;;;;;;;4.20;3.80;;;12.70;99.90;;;;;;5011053;28;20171;-75
2022/06/02 06:00:50;;;;;;;4.43;4.03;;;12.60;99.90;;;;;;5020702;28;20108;-75
2022/06/02 06:03:29;;;;;;;4.60;4.18;;;12.60;99.90;;;;;;5023421;28;20519;-75
2022/06/02 06:06:29;;;;;;;4.82;3.90;;;12.50;99.90;;;;;;5011419;28;20076;-75
2022/06/02 06:09:45;;;;;;;5.72;4.20;;;12.50;99.90;;;;;;5021839;28;20037;-75
2022/06/02 06:12:41;;;;;;;5.95;4.35;;;12.50;99.90;;;;;;4923822;29;20036;-75
2022/06/02 06:15:44;;;;;;;4.75;4.35;;;12.50;99.90;;;;;;5018817;28;20061;-75
2022/06/02 06:18:47;;;;;;;5.40;4.70;;;12.60;99.90;;;;;;5018836;28;20026;-75
2022/06/02 06:21:31;;;;;;;6.63;5.23;;;12.60;99.90;;;;;;4995303;28;20772;-75
2022/06/02 06:24:02;;;;;;;5.72;4.70;;;12.60;99.90;;;;;;5025818;28;20350;-75
2022/06/02 06:27:00;;;;;;;7.93;5.22;;;12.80;99.90;;;;;;5022663;28;20037;-75
2022/06/02 06:29:38;;;;;;;5.30;4.90;;;12.90;99.90;;;;;;5010044;28;20034;-75
2022/06/02 06:32:24;;;;;;;9.65;8.07;;;13.20;99.90;;;;;;5021799;28;20042;-75
2022/06/02 06:35:01;;;;;;;8.25;7.45;;;13.40;99.90;;;;;;5009227;28;20042;-75
2022/06/02 06:37:42;;;;;;;9.85;6.68;;;13.70;99.90;;;;;;5017032;28;20069;-75
2022/06/02 06:40:23;;;;;;;10.70;8.38;;;14.10;99.90;;;;;;5019298;28;20040;-75
2022/06/02 06:43:13;;;;;;;9.05;8.15;;;14.40;99.90;;;;;;5018985;28;20044;-76
2022/06/02 06:45:59;;;;;;;8.75;7.80;;;14.70;99.90;;;;;;5021123;28;20322;-75
2022/06/02 06:48:51;;;;;;;9.45;8.20;;;14.90;99.90;;;;;;5019527;28;20026;-74
2022/06/02 06:51:40;;;;;;;8.30;7.50;;;15.20;99.90;;;;;;5014988;28;20029;-75
2022/06/02 06:54:12;;;;;;;10.93;7.70;;;15.50;99.90;;;;;;5019453;28;20460;-75
2022/06/02 06:56:47;;;;;;;9.73;8.65;;;15.70;99.90;;;;;;5022996;28;20059;-75
2022/06/02 07:00:02;;;;;;;8.25;7.45;;;15.80;99.90;;;;;;5009642;28;20260;-75
2022/06/02 07:02:48;;;;;;;8.48;7.20;;;15.80;99.90;;;;;;5021265;28;20029;-75
2022/06/02 07:05:51;;;;;;;8.77;7.85;;;16.00;99.90;;;;;;5021239;28;20116;-75
2022/06/02 07:08:20;;;;;;;8.95;8.05;;;16.10;99.90;;;;;;4976061;28;20029;-75
2022/06/02 07:11:07;;;;;;;8.38;7.50;;;16.20;99.90;;;;;;5025050;28;20405;-75
2022/06/02 07:13:46;;;;;;;9.07;8.18;;;16.40;99.90;;;;;;5023872;28;20197;-74
2022/06/02 07:16:31;;;;;;;9.68;7.63;;;;;;;;;;5023617;28;20029;-74
2022/06/02 07:19:00;;;;;;;7.85;7.00;;;;;;;;;;5018509;28;20099;-74
2022/06/02 07:21:43;;;;;;;9.27;7.50;;;;;;;;;;5019111;28;20025;-75
2022/06/02 07:24:28;;;;;;;7.68;6.88;;;;;;;;;;5024628;28;20029;-74
2022/06/02 07:26:56;;;;;;;9.63;7.60;;;17.40;99.90;;;;;;5015266;28;20026;-74
2022/06/02 07:29:29;;;;;;;9.38;8.35;;;;;;;;;;5020023;28;20028;-78
2022/06/02 07:32:08;;;;;;;8.20;7.40;;;17.20;99.90;;;;;;5012287;28;20607;-77
2022/06/02 07:34:56;;;;;;;8.45;7.65;;;16.90;99.90;;;;;;5016573;28;20021;-78
2022/06/02 07:37:22;;;;;;;8.27;7.47;;;16.50;99.90;;;;;;4988684;28;20630;-78
2022/06/02 07:39:48;;;;;;;8.50;7.65;;;16.30;99.90;;;;;;5008545;28;20057;-78
2022/06/02 07:42:16;;;;;;;7.70;6.88;;;16.10;99.90;;;;;;5010654;28;20077;-78
2022/06/02 07:44:54;;;;;;;8.45;7.25;;;15.90;99.90;;;;;;5005890;28;20025;-78
2022/06/02 07:47:28;;;;;;;8.57;7.75;;;15.90;99.90;;;;;;5005865;28;20462;-78
2022/06/02 07:50:29;;;;;;;8.93;7.60;;;15.80;99.90;;;;;;5007470;28;20024;-79
2022/06/02 07:53:04;;;;;;;7.95;6.97;;;16.10;99.90;;;;;;5005878;28;20034;-79
2022/06/02 07:55:49;;;;;;;6.82;6.20;;;16.60;99.90;;;;;;5005973;28;20032;-79
2022/06/02 07:58:50;;;;;;;7.25;6.50;;;17.10;99.90;;;;;;5005381;28;20474;-78
2022/06/02 08:01:19;;;;;;;6.85;6.25;;;17.50;99.90;;;;;;5006365;28;20503;-76
2022/06/02 08:04:18;;;;;;;6.32;5.72;;;17.40;99.90;;;;;;5012047;28;20445;-73
2022/06/02 08:06:44;;;;;;;6.65;5.93;;;17.70;99.90;;;;;;5018832;28;20026;-73
2022/06/02 08:09:24;;;;;;;6.45;5.80;;;18.20;99.90;;;;;;5019071;28;20059;-73
2022/06/02 08:12:13;;;;;;;7.10;6.30;;;18.60;99.90;;;;;;5018062;28;20064;-72
2022/06/02 08:15:07;;;;;;;6.38;5.78;;;18.60;99.90;;;;;;4975026;28;20029;-71
2022/06/02 08:17:55;;;;;;;;;;;18.40;99.90;;;;;;5007076;28;20060;-72
2022/06/02 08:20:40;;;;;;;7.38;6.68;;;18.10;99.90;;;;;;4997569;28;20353;-72
2022/06/02 08:23:47;;;;;;;5.40;4.90;;;18.10;99.90;;;;;;5023204;28;20033;-72
2022/06/02 08:26:19;;;;;;;8.50;7.60;;;18.40;99.90;;;;;;5023031;28;20025;-72
2022/06/02 08:29:21;;;;;;;8.48;7.57;;;18.70;99.90;;;;;;5016145;28;20038;-72
2022/06/02 08:32:08;;;;;;;6.22;5.72;;;19.00;99.90;;;;;;5031022;28;20034;-72
2022/06/02 08:34:49;;;;;;;7.15;6.45;;;19.30;99.90;;;;;;5023685;28;20061;-72
2022/06/02 08:37:32;;;;;;;6.28;5.50;;;19.50;99.90;;;;;;5017894;28;20026;-72
2022/06/02 08:40:16;;;;;;;7.22;5.65;;;19.60;99.90;;;;;;5021422;28;20033;-72
2022/06/02 08:42:54;;;;;;;6.72;5.10;;;19.60;98.40;;;;;;5028823;28;20033;-74
2022/06/02 08:45:53;;;;;;;5.28;4.72;;;19.70;97.40;;;;;;5027393;28;20460;-73
2022/06/02 08:48:31;;;;;;;6.13;5.18;;;19.80;97.70;;;;;;5023678;28;20041;-74
2022/06/02 08:51:33;;;;;;;5.60;5.10;;;19.60;96.60;;;;;;5019133;28;20447;-73
2022/06/02 08:54:16;;;;;;;5.55;4.55;;;19.30;97.10;;;;;;5010657;28;20041;-73
2022/06/02 08:56:50;;;;;;;6.40;5.40;;;18.90;97.80;;;;;;5021701;28;20680;-74
2022/06/02 08:59:31;;;;;;;5.25;4.68;;;18.60;97.30;;;;;;5020228;28;20056;-74
2022/06/02 09:02:14;;;;;;;5.10;4.60;;;18.20;98.40;;;;;;5020741;28;20029;-74
2022/06/02 09:05:12;;;;;;;5.10;4.47;;;18.20;99.70;;;;;;5019384;28;20041;-74
2022/06/02 09:08:17;;;;;;;5.40;4.90;;;18.30;99.70;;;;;;5021366;28;20469;-75
2022/06/02 09:11:01;;;;;;;4.82;4.22;;;18.30;99.00;;;;;;5010918;28;20037;-75
2022/06/02 09:13:56;;;;;;;4.80;3.78;;;18.50;97.40;;;;;;5023734;28;20730;-74
2022/06/02 09:16:48;;;;;;;3.25;2.72;;;18.80;97.10;;;;;;5023848;28;20056;-73
2022/06/02 09:19:14;;;;;;;2.80;2.40;;;19.50;95.20;;;;;;5021824;28;20547;-74
2022/06/02 09:22:10;;;;;;;2.80;2.60;;;19.60;95.40;;;;;;5030999;28;20033;-74
2022/06/02 09:25:09;;;;;;;2.67;2.47;;;20.10;94.60;;;;;;5024885;28;20026;-74
2022/06/02 09:28:06;;;;;;;3.90;2.60;;;20.50;92.70;;;;;;5020331;28;20029;-72
2022/06/02 09:30:48;;;;;;;2.80;2.50;;;20.70;90.90;;;;;;5013585;28;20497;-73
2022/06/02 09:36:49;;;;;;;3.70;3.17;;;20.20;87.30;;;;;;5026139;28;20104;-72
2022/06/02 09:39:20;;;;;;;4.07;2.50;;;19.70;90.90;;;;;;4978775;28;20165;-72
2022/06/02 09:42:22;;;;;;;3.38;2.70;;;19.00;92.40;;;;;;5016757;28;20033;-73
2022/06/02 09:45:42;;;;;;;2.42;2.22;;;18.90;91.90;;;;;;5017904;28;20349;-72
2022/06/02 09:48:26;;;;;;;2.60;2.40;;;19.20;91.30;;;;;;4943392;29;20099;-72
2022/06/02 09:51:13;;;;;;;3.33;2.50;;;19.50;90.80;;;;;;4942584;28;20066;-72
2022/06/02 09:54:02;;;;;;;2.42;2.00;;;19.60;90.70;;;;;;5010163;28;20045;-73
2022/06/02 09:56:46;;;;;;;2.20;1.95;;;19.70;90.30;;;;;;5026816;28;20033;-73
2022/06/02 09:59:36;;;;;;;2.85;2.40;;;19.50;86.50;;;;;;5017706;28;20029;-73
2022/06/02 10:02:23;;;;;;;2.83;2.15;;;19.20;87.40;;;;;;4999830;28;20037;-73
2022/06/02 10:05:19;;;;;;;2.30;2.10;;;18.90;90.10;;;;;;5023918;28;20033;-73
2022/06/02 10:08:06;;;;;;;3.00;2.50;;;18.70;90.20;;;;;;5016492;28;20699;-73
2022/06/02 10:10:55;;;;;;;2.35;1.98;;;18.60;91.80;;;;;;5022051;28;20044;-74
2022/06/02 10:14:01;;;;;;;3.03;2.13;;;18.80;92.00;;;;;;4971432;28;20128;-73
2022/06/02 10:17:04;;;;;;;3.38;1.90;;;18.80;91.40;;;;;;5024721;28;20509;-74
2022/06/02 10:19:51;;;;;;;1.65;1.55;;;18.60;90.10;;;;;;5015896;28;20033;-74
2022/06/02 10:22:26;;;;;;;2.03;1.67;;;18.50;91.20;;;;;;5019382;28;20036;-73
2022/06/02 10:25:20;;;;;;;2.30;2.00;;;18.70;91.30;;;;;;5024267;28;20045;-74
2022/06/02 10:28:06;;;;;;;3.00;2.10;;;19.10;88.30;;;;;;5021188;28;20494;-73
2022/06/02 10:30:57;;;;;;;2.10;1.90;;;19.50;84.70;;;;;;5023763;28;20025;-74
2022/06/02 10:33:47;;;;;;;2.00;1.77;;;19.80;84.00;;;;;;5026124;28;20057;-73
2022/06/02 10:36:43;;;;;;;2.45;2.03;;;20.20;85.40;;;;;;5019881;28;20076;-73
2022/06/02 10:39:26;;;;;;;2.45;2.15;;;20.50;85.60;;;;;;5012451;28;20127;-73
2022/06/02 10:42:22;;;;;;;2.38;2.15;;;20.70;84.80;;;;;;5019607;28;20068;-73
2022/06/02 10:45:17;;;;;;;2.35;2.05;;;20.70;80.00;;;;;;5024511;28;20718;-73
2022/06/02 10:48:15;;;;;;;1.50;1.40;;;20.40;80.20;;;;;;5013364;28;20552;-74
2022/06/02 10:51:19;;;;;;;1.60;1.48;;;20.00;82.70;;;;;;5013809;28;20040;-74
2022/06/02 10:54:06;;;;;;;2.08;1.20;;;19.70;86.00;;;;;;5011414;28;20022;-73
2022/06/02 10:57:03;;;;;;;2.53;1.10;;;19.40;84.30;;;;;;5015920;28;20457;-73
2022/06/02 11:00:02;;;;;;;1.70;1.60;;;19.20;87.60;;;;;;5016450;28;20525;-73
2022/06/02 11:02:37;;;;;;;0.90;0.90;;;19.10;82.50;;;;;;5019044;28;20499;-73
2022/06/02 11:05:16;;;;;;;1.77;1.05;;;18.90;85.50;;;;;;5006365;28;20237;-74
2022/06/02 11:07:54;;;;;;;1.10;1.10;;;18.80;85.30;;;;;;5016512;28;20200;-74
2022/06/02 11:10:36;;;;;;;1.30;0.95;;;18.80;83.60;;;;;;5015525;28;20057;-74
2022/06/02 11:13:33;;;;;;;0.80;0.80;;;18.90;87.60;;;;;;5014623;28;20018;-74
2022/06/02 11:16:01;;;;;;;1.75;1.17;;;19.30;82.30;;;;;;5017451;28;20306;-73
2022/06/02 11:18:38;;;;;;;2.20;1.30;;;19.80;79.40;;;;;;5009204;28;20135;-75
2022/06/02 11:21:22;;;;;;;1.30;1.00;;;20.20;79.30;;;;;;5021874;28;20120;-74
2022/06/02 11:24:12;;;;;;;1.10;1.10;;;20.70;79.30;;;;;;5020774;28;20064;-74
2022/06/02 11:26:58;;;;;;;1.27;1.00;;;20.90;78.90;;;;;;5013397;28;20025;-75
2022/06/02 11:30:01;;;;;;;2.03;1.20;;;20.80;79.90;;;;;;5019847;28;20021;-74
2022/06/02 11:32:47;;;;;;;2.40;1.60;;;20.60;81.20;;;;;;5022172;28;20538;-74
2022/06/02 11:35:50;;;;;;;2.97;1.60;;;20.10;83.00;;;;;;5018079;28;20467;-75
2022/06/02 11:38:42;;;;;;;1.58;1.33;;;19.80;83.80;;;;;;5015873;28;20136;-75
2022/06/02 11:41:26;;;;;;;3.05;1.50;;;19.40;86.70;;;;;;5022282;28;20056;-75
2022/06/02 11:44:01;;;;;;;1.63;1.38;;;19.20;84.80;;;;;;5019465;28;20083;-76
2022/06/02 11:46:45;;;;;;;2.33;1.10;;;19.10;81.30;;;;;;5022940;28;20030;-76
2022/06/02 11:49:32;;;;;;;2.60;1.20;;;19.10;82.90;;;;;;5010061;28;20037;-75
2022/06/02 11:52:19;;;;;;;2.08;1.25;;;19.10;82.80;;;;;;5015968;28;20049;-75
2022/06/02 11:54:56;;;;;;;1.13;1.02;;;19.10;84.20;;;;;;5013748;28;20084;-75
2022/06/02 11:57:41;;;;;;;4.07;1.50;;;19.40;83.30;;;;;;5013498;28;20084;-73
2022/06/02 12:00:35;;;;;;;1.30;1.20;;;19.80;82.10;;;;;;5018018;28;20836;-74
2022/06/02 12:03:37;;;;;;;2.25;1.23;;;20.00;79.30;;;;;;5008949;28;20040;-75
2022/06/02 12:06:18;;;;;;;1.73;1.40;;;20.30;75.80;;;;;;5014851;28;20025;-74
2022/06/02 12:09:14;;;;;;;1.40;1.30;;;20.60;77.60;;;;;;5014296;28;20116;-74
2022/06/02 12:11:57;;;;;;;1.27;1.17;;;20.80;75.20;;;;;;5010955;28;20030;-74
2022/06/02 12:14:33;;;;;;;3.38;1.50;;;21.20;74.00;;;;;;5008680;28;20029;-72
2022/06/02 12:17:05;;;;;;;2.67;1.40;;;21.30;74.90;;;;;;5012161;28;20041;-79
2022/06/02 12:20:00;;;;;;;1.50;1.40;;;21.50;77.20;;;;;;5009735;28;20117;-82
2022/06/02 12:22:44;;;;;;;1.35;1.10;;;21.40;74.30;;;;;;4312715;28;10001148;-81
2022/06/02 12:25:25;;;;;;;2.38;1.00;;;21.20;75.20;;;;;;5002287;28;20380;-79
2022/06/02 12:28:19;;;;;;;1.60;1.42;;;20.90;79.10;;;;;;5016682;28;20045;-81
2022/06/02 12:30:55;;;;;;;3.88;1.52;;;20.50;74.50;;;;;;5013881;28;20053;-81
2022/06/02 12:33:23;;;;;;;1.80;1.17;;;20.40;77.20;;;;;;5012514;28;20037;-82
2022/06/02 12:35:58;;;;;;;1.38;1.27;;;20.40;74.90;;;;;;5013543;28;20596;-81
2022/06/02 12:38:33;;;;;;;1.90;1.52;;;20.60;75.70;;;;;;5004993;28;20069;-80
2022/06/02 12:41:14;;;;;;;2.03;1.40;;;20.90;73.20;;;;;;5014292;28;20044;-82
2022/06/02 12:44:00;;;;;;;1.35;1.25;;;21.10;71.50;;;;;;5019133;28;20131;-82
2022/06/02 12:46:37;;;;;;;1.70;1.20;;;21.40;70.40;;;;;;5010107;28;20140;-80
2022/06/02 12:49:13;;;;;;;1.10;1.05;;;21.70;70.10;;;;;;5031521;28;20190;-80
2022/06/02 12:52:08;;;;;;;2.15;1.17;;;22.00;68.70;;;;;;5017077;28;20041;-82
2022/06/02 12:55:17;;;;;;;1.20;0.88;;;22.10;70.30;;;;;;4962664;28;20404;-82
2022/06/02 12:58:07;;;;;;;1.33;1.02;;;22.30;68.60;;;;;;4990497;28;20037;-82
2022/06/02 13:00:50;;;;;;;1.10;1.00;;;22.70;60.90;;;;;;4668187;28;10000589;-81
2022/06/02 13:03:25;;;;;;;;;;;22.50;63.90;;;;;;5021916;28;20548;-81
2022/06/02 13:06:09;;;;;;;3.15;1.00;;;22.10;63.80;;;;;;5015299;28;20114;-82
2022/06/02 13:09:02;;;;;;;1.30;1.20;;;21.40;66.40;;;;;;5018141;28;20119;-81
2022/06/02 13:11:46;;;;;;;1.50;1.40;;;21.00;72.20;;;;;;5017327;28;20091;-82
2022/06/02 13:14:55;;;;;;;2.38;1.30;;;20.30;72.70;;;;;;5014484;28;20464;-80
2022/06/02 13:17:26;;;;;;;2.80;1.25;;;19.90;73.60;;;;;;5014618;28;20275;-82
2022/06/02 13:20:13;;;;;;;1.85;1.20;;;20.00;74.00;;;;;;5021608;28;20037;-84
2022/06/02 13:23:03;;;;;;;1.10;1.10;;;20.50;69.90;;;;;;5007919;28;20674;-81
2022/06/02 13:25:40;;;;;;;1.65;1.20;;;21.00;71.10;;;;;;5004802;28;20033;-81
2022/06/02 13:28:32;;;;;;;1.10;1.00;;;21.30;68.20;;;;;;5010368;28;20056;-81
2022/06/02 13:31:16;;;;;;;2.33;1.00;;;21.60;66.30;;;;;;5016218;28;20041;-82
2022/06/02 13:34:00;;;;;;;1.38;1.02;;;22.10;68.00;;;;;;5008310;28;20528;-81
2022/06/02 13:36:39;;;;;;;1.00;0.90;;;22.30;66.10;;;;;;5003813;28;20121;-84
2022/06/02 13:39:42;;;;;;;1.67;0.95;;;22.40;64.00;;;;;;5004028;28;20041;-83
2022/06/02 13:42:27;;;;;;;1.40;1.20;;;22.30;66.80;;;;;;4991303;28;20030;-83
2022/06/02 13:45:22;;;;;;;0.98;0.90;;;22.30;66.20;;;;;;4996215;28;20454;-84
2022/06/02 13:48:22;;;;;;;1.20;1.10;;;22.60;64.00;;;;;;5005695;28;20101;-81
2022/06/02 13:51:31;;;;;;;1.10;1.00;;;22.80;61.10;;;;;;5001073;28;20033;-81
2022/06/02 13:57:42;;;;;;;3.50;1.05;;;22.20;61.80;;;;;;5004587;28;20048;-82
2022/06/02 14:00:17;;;;;;;1.70;1.08;;;22.00;62.90;;;;;;4981038;28;20115;-82
2022/06/02 14:03:16;;;;;;;1.10;1.05;;;22.10;62.70;;;;;;4986199;28;20038;-81
2022/06/02 14:05:50;;;;;;;1.58;1.05;;;22.20;61.90;;;;;;4993023;28;20018;-82
2022/06/02 14:08:54;;;;;;;0.90;0.90;;;22.30;62.50;;;;;;4996831;28;20257;-82
2022/06/02 14:11:35;;;;;;;;;;;22.40;60.60;;;;;;4988838;28;20042;-73
2022/06/02 14:14:06;;;;;;;1.73;1.08;;;22.60;61.30;;;;;;5000006;28;19981;-86
2022/06/02 14:16:57;;;;;;;2.88;1.23;;;22.90;64.70;;;;;;4997273;28;20145;-85
2022/06/02 14:19:28;;;;;;;1.35;0.90;;;22.90;61.80;;;;;;4990677;28;20429;-83
2022/06/02 14:22:24;;;;;;;1.25;1.00;;;23.00;61.10;;;;;;4997696;28;20534;-82
2022/06/02 14:25:05;;;;;;;1.08;0.80;;;23.10;61.70;;;;;;4989106;28;20052;-82
2022/06/02 14:27:40;;;;;;;1.00;0.90;;;23.00;62.40;;;;;;4990864;28;20101;-80
2022/06/02 14:30:11;;;;;;;0.95;0.82;;;23.00;59.70;;;;;;4990010;28;20034;-83
2022/06/02 14:33:04;;;;;;;2.08;1.02;;;22.80;60.50;;;;;;4995939;28;20082;-82
2022/06/02 14:35:30;;;;;;;;;;;22.80;58.60;;;;;;5013418;28;20163;-82
2022/06/02 14:38:25;;;;;;;2.20;0.98;;;22.70;58.50;;;;;;5013535;28;19921;-80
2022/06/02 14:41:18;;;;;;;0.98;0.98;;;22.50;67.10;;;;;;5002119;28;20072;-86
2022/06/02 14:44:05;;;;;;;1.35;1.08;;;22.30;60.60;;;;;;5010535;28;20521;-87